Terminal Aerodrome Forecast
Issued by NWS

Home | Current Version | Previous Version | Text Only | Print | Product List | Glossary Off
Versions: 1 2 3 4 5 6 7 8 9 10 11 12 13 14 15 16

742
FTUS43 KICT 162320
TAFRSL
TAF
KRSL 162320Z 1700/1724 17009KT P6SM SCT250
     FM170500 17012KT P6SM SCT200
     FM171100 22012KT P6SM FEW250 WS020/31040KT
     FM171400 27015G22KT P6SM SKC
     FM171700 31022G31KT P6SM SKC
     FM172300 35011KT P6SM SKC=

USA.gov is the U.S. government's official web portal to all federal, state and local government web resources and services.